createdAt,value
2018-02-09T00:00:36.750Z,6.39
2018-02-09T00:03:04.315Z,6.34
2018-02-09T00:05:31.878Z,6.29
2018-02-09T00:07:59.495Z,6.28
2018-02-09T00:10:27.126Z,6.35
2018-02-09T00:12:54.745Z,6.42
2018-02-09T00:15:22.310Z,6.41
2018-02-09T00:17:49.893Z,6.47
2018-02-09T00:20:17.523Z,6.46
2018-02-09T00:22:52.933Z,6.56
2018-02-09T00:25:20.507Z,6.60
2018-02-09T00:27:48.067Z,6.65
2018-02-09T00:30:15.747Z,6.68
2018-02-09T00:32:43.315Z,6.76
2018-02-09T00:35:10.875Z,6.77
2018-02-09T00:37:38.519Z,6.78
2018-02-09T00:40:06.098Z,6.75
2018-02-09T00:42:33.744Z,6.72
2018-02-09T00:45:01.470Z,6.77
2018-02-09T00:47:29.099Z,6.74
2018-02-09T00:49:56.646Z,6.74
2018-02-09T00:52:24.218Z,6.73
2018-02-09T00:54:51.774Z,6.64
2018-02-09T00:57:19.342Z,6.61
2018-02-09T00:59:46.909Z,6.63
2018-02-09T01:02:14.577Z,6.61
2018-02-09T01:04:42.158Z,6.59
2018-02-09T01:07:09.741Z,6.60
2018-02-09T01:09:37.310Z,6.55
2018-02-09T01:12:04.926Z,6.60
2018-02-09T01:14:32.562Z,6.59
2018-02-09T01:17:00.130Z,6.63
2018-02-09T01:19:27.707Z,6.73
2018-02-09T01:21:55.331Z,6.76
2018-02-09T01:24:22.945Z,6.70
2018-02-09T01:26:50.506Z,6.66
2018-02-09T01:29:18.066Z,6.58
2018-02-09T01:31:45.646Z,6.51
2018-02-09T01:34:13.222Z,6.53
2018-02-09T01:36:40.856Z,6.49
2018-02-09T01:39:08.494Z,6.42
2018-02-09T01:41:36.123Z,6.47
2018-02-09T01:44:03.703Z,6.45
2018-02-09T01:46:31.271Z,6.49
2018-02-09T01:48:58.895Z,6.56
2018-02-09T01:51:26.477Z,6.56
2018-02-09T01:53:54.045Z,6.59
2018-02-09T01:56:21.686Z,6.61
2018-02-09T01:58:49.321Z,6.63
2018-02-09T02:01:16.947Z,6.68
2018-02-09T02:03:44.515Z,6.71
2018-02-09T02:06:12.166Z,6.74
2018-02-09T02:08:39.736Z,6.73
2018-02-09T02:11:07.372Z,6.76
2018-02-09T02:13:35.007Z,6.78
2018-02-09T02:16:02.566Z,6.77
2018-02-09T02:18:30.144Z,6.75
2018-02-09T02:20:57.739Z,6.80
2018-02-09T02:23:25.310Z,6.80
2018-02-09T02:25:53.078Z,6.75
2018-02-09T02:28:20.646Z,6.78
2018-02-09T02:30:48.219Z,6.81
2018-02-09T02:33:15.868Z,6.76
2018-02-09T02:35:43.495Z,6.76
2018-02-09T02:38:11.131Z,6.80
2018-02-09T02:40:38.712Z,6.80
2018-02-09T02:43:06.285Z,6.86
2018-02-09T02:45:33.888Z,6.93
2018-02-09T02:48:01.470Z,6.94
2018-02-09T02:50:29.093Z,6.97
2018-02-09T02:52:56.658Z,6.96
2018-02-09T02:55:24.286Z,6.97
2018-02-09T02:57:51.920Z,6.98
2018-02-09T03:00:19.840Z,6.99
2018-02-09T03:02:47.471Z,6.98
2018-02-09T03:05:15.094Z,6.96
2018-02-09T03:07:42.654Z,6.94
2018-02-09T03:10:10.291Z,6.95
2018-02-09T03:12:37.849Z,6.96
2018-02-09T03:15:05.468Z,6.96
2018-02-09T03:17:33.015Z,6.94
2018-02-09T03:20:00.582Z,6.90
2018-02-09T03:22:28.161Z,6.87
2018-02-09T03:24:55.718Z,6.86
2018-02-09T03:27:23.394Z,6.86
2018-02-09T03:29:50.951Z,6.85
2018-02-09T03:32:18.525Z,6.80
2018-02-09T03:34:46.099Z,6.71
2018-02-09T03:37:13.674Z,6.71
2018-02-09T03:39:41.367Z,6.70
2018-02-09T03:42:08.935Z,6.70
2018-02-09T03:44:36.511Z,6.71
2018-02-09T03:47:04.086Z,6.73
2018-02-09T03:49:31.668Z,6.76
2018-02-09T03:51:59.355Z,6.77
2018-02-09T03:54:26.970Z,6.73
2018-02-09T03:56:54.544Z,6.76
2018-02-09T03:59:22.182Z,6.79
2018-02-09T04:01:49.745Z,6.78
2018-02-09T04:04:17.430Z,6.79
2018-02-09T04:06:45.058Z,6.82
2018-02-09T04:09:12.692Z,6.81
2018-02-09T04:11:40.308Z,6.82
2018-02-09T04:14:07.881Z,6.83
2018-02-09T04:16:35.505Z,6.84
2018-02-09T04:19:03.099Z,6.87
2018-02-09T04:21:30.752Z,6.86
2018-02-09T04:23:58.410Z,6.84
2018-02-09T04:26:25.973Z,6.79
2018-02-09T04:28:53.646Z,6.84
2018-02-09T04:31:21.234Z,6.83
2018-02-09T04:33:48.803Z,6.78
2018-02-09T04:36:16.431Z,6.73
2018-02-09T04:38:44.005Z,6.70
2018-02-09T04:41:11.654Z,6.67
2018-02-09T04:43:39.308Z,6.61
2018-02-09T04:46:06.877Z,6.46
2018-02-09T04:48:34.505Z,6.33
2018-02-09T04:51:02.933Z,6.21
2018-02-09T04:53:30.661Z,6.12
2018-02-09T04:55:58.230Z,6.04
2018-02-09T04:58:25.790Z,5.95
2018-02-09T05:00:53.371Z,5.78
2018-02-09T05:03:21.026Z,5.76
2018-02-09T05:05:48.746Z,5.66
2018-02-09T05:08:16.367Z,5.55
2018-02-09T05:10:43.934Z,5.54
2018-02-09T05:13:11.570Z,5.50
2018-02-09T05:15:39.194Z,5.49
2018-02-09T05:18:06.826Z,5.52
2018-02-09T05:20:34.385Z,5.58
2018-02-09T05:23:01.968Z,5.66
2018-02-09T05:25:29.543Z,5.67
2018-02-09T05:27:57.168Z,5.75
2018-02-09T05:30:24.777Z,5.88
2018-02-09T05:32:52.407Z,5.96
2018-02-09T05:35:19.979Z,6.02
2018-02-09T05:37:47.615Z,6.08
2018-02-09T05:40:15.200Z,6.10
2018-02-09T05:42:42.839Z,6.12
2018-02-09T05:45:10.410Z,6.19
2018-02-09T05:47:37.971Z,6.22
2018-02-09T05:50:05.580Z,6.24
2018-02-09T05:52:33.149Z,6.21
2018-02-09T05:55:00.769Z,6.11
2018-02-09T05:57:28.390Z,6.14
2018-02-09T05:59:55.950Z,6.19
2018-02-09T06:02:23.521Z,6.13
2018-02-09T06:04:51.142Z,6.10
2018-02-09T06:07:18.781Z,6.14
2018-02-09T06:09:46.349Z,6.13
2018-02-09T06:12:14.026Z,6.17
2018-02-09T06:14:41.596Z,6.09
2018-02-09T06:17:09.138Z,6.12
2018-02-09T06:19:36.715Z,6.13
2018-02-09T06:22:04.295Z,6.16
2018-02-09T06:24:31.928Z,6.21
2018-02-09T06:26:59.502Z,6.28
2018-02-09T06:29:27.122Z,6.37
2018-02-09T06:31:54.678Z,6.46
2018-02-09T06:34:22.239Z,6.55
2018-02-09T06:36:49.805Z,6.71
2018-02-09T06:39:17.361Z,6.82
2018-02-09T06:41:44.947Z,6.93
2018-02-09T06:44:12.550Z,7.06
2018-02-09T06:46:40.351Z,7.16
2018-02-09T06:49:07.921Z,7.26
2018-02-09T06:51:35.551Z,7.35
2018-02-09T06:54:03.140Z,7.45
2018-02-09T06:56:30.772Z,7.45
2018-02-09T06:58:58.347Z,7.50
2018-02-09T07:01:25.966Z,7.57
2018-02-09T07:03:53.577Z,7.54
2018-02-09T07:06:21.139Z,7.56
2018-02-09T07:08:48.703Z,7.62
2018-02-09T07:11:16.265Z,7.60
2018-02-09T07:13:43.893Z,7.64
2018-02-09T07:16:11.527Z,7.74
2018-02-09T07:18:39.084Z,7.76
2018-02-09T07:21:06.758Z,7.77
2018-02-09T07:23:34.323Z,7.72
2018-02-09T07:26:01.888Z,7.84
2018-02-09T07:28:29.460Z,7.82
2018-02-09T07:30:57.029Z,7.85
2018-02-09T07:33:24.654Z,7.73
2018-02-09T07:35:52.228Z,7.78
2018-02-09T07:38:19.828Z,7.78
2018-02-09T07:40:47.392Z,7.81
2018-02-09T07:43:15.073Z,7.92
2018-02-09T07:45:42.650Z,8.13
2018-02-09T07:48:10.218Z,8.06
2018-02-09T07:50:37.820Z,8.17
2018-02-09T07:53:05.363Z,8.12
2018-02-09T07:55:32.996Z,8.21
2018-02-09T07:58:00.646Z,8.38
2018-02-09T08:00:28.206Z,8.36
2018-02-09T08:02:55.788Z,8.38
2018-02-09T08:05:23.367Z,8.36
2018-02-09T08:07:51.008Z,8.52
2018-02-09T08:10:18.630Z,8.55
2018-02-09T08:12:46.258Z,8.58
2018-02-09T08:15:13.886Z,8.57
2018-02-09T08:17:41.460Z,8.63
2018-02-09T08:20:09.049Z,8.69
2018-02-09T08:22:36.679Z,8.76
2018-02-09T08:25:04.298Z,8.80
2018-02-09T08:27:31.936Z,8.86
2018-02-09T08:29:59.558Z,8.71
2018-02-09T08:32:27.183Z,8.61
2018-02-09T08:34:54.784Z,8.60
2018-02-09T08:37:22.370Z,8.78
2018-02-09T08:39:49.954Z,8.75
2018-02-09T08:42:17.541Z,8.79
2018-02-09T08:44:45.094Z,8.81
2018-02-09T08:47:12.770Z,8.95
2018-02-09T08:49:40.387Z,8.85
2018-02-09T08:52:07.954Z,8.79
2018-02-09T08:54:35.530Z,8.89
2018-02-09T08:57:03.155Z,8.98
2018-02-09T08:59:30.721Z,8.98
2018-02-09T09:01:58.286Z,8.99
2018-02-09T09:04:25.932Z,8.95
2018-02-09T09:06:53.558Z,8.98
2018-02-09T09:09:21.121Z,8.99
2018-02-09T09:11:48.704Z,9.05
2018-02-09T09:14:16.272Z,9.20
2018-02-09T09:16:43.894Z,9.57
2018-02-09T09:19:11.461Z,9.98
2018-02-09T09:21:39.152Z,10.37
2018-02-09T09:24:06.774Z,10.76
2018-02-09T09:26:34.404Z,10.89
2018-02-09T09:29:01.990Z,10.43
2018-02-09T09:31:29.561Z,10.40
2018-02-09T09:33:57.156Z,10.31
2018-02-09T09:36:24.736Z,10.14
2018-02-09T09:38:52.431Z,10.09
2018-02-09T09:41:20.003Z,9.97
2018-02-09T09:43:47.574Z,10.05
2018-02-09T09:46:15.202Z,9.93
2018-02-09T09:48:42.830Z,9.96
2018-02-09T09:51:10.404Z,10.01
2018-02-09T09:53:37.945Z,9.85
2018-02-09T09:56:05.558Z,9.75
2018-02-09T09:58:33.122Z,9.69
2018-02-09T10:01:00.726Z,9.84
2018-02-09T10:03:28.294Z,9.94
2018-02-09T10:05:55.915Z,10.04
2018-02-09T10:08:23.509Z,10.10
2018-02-09T10:10:51.126Z,10.16
2018-02-09T10:13:18.751Z,10.30
2018-02-09T10:15:46.326Z,10.46
2018-02-09T10:18:13.903Z,10.51
2018-02-09T10:20:41.483Z,10.63
2018-02-09T10:23:09.115Z,10.86
2018-02-09T10:25:36.691Z,11.19
2018-02-09T10:28:04.320Z,11.62
2018-02-09T10:30:31.990Z,12.35
2018-02-09T10:32:59.555Z,13.10
2018-02-09T10:35:27.130Z,13.40
2018-02-09T10:37:54.764Z,13.47
2018-02-09T10:40:22.330Z,13.66
2018-02-09T10:42:49.884Z,13.96
2018-02-09T10:45:17.448Z,14.58
2018-02-09T10:47:45.087Z,14.46
2018-02-09T10:50:12.655Z,15.07
2018-02-09T10:52:40.274Z,15.01
2018-02-09T10:55:07.911Z,15.03
2018-02-09T10:57:35.475Z,15.02
2018-02-09T11:00:03.108Z,15.06
2018-02-09T11:02:30.673Z,14.95
2018-02-09T11:04:58.253Z,15.45
2018-02-09T11:07:25.818Z,15.52
2018-02-09T11:09:53.477Z,15.85
2018-02-09T11:12:21.928Z,16.04
2018-02-09T11:14:49.487Z,15.58
2018-02-09T11:17:17.155Z,15.40
2018-02-09T11:19:44.738Z,15.72
2018-02-09T11:22:12.323Z,15.89
2018-02-09T11:24:39.991Z,15.83
2018-02-09T11:27:07.613Z,15.71
2018-02-09T11:29:35.238Z,15.39
2018-02-09T11:32:02.876Z,15.51
2018-02-09T11:34:30.457Z,15.73
2018-02-09T11:36:58.030Z,16.14
2018-02-09T11:39:25.617Z,16.22
2018-02-09T11:41:53.208Z,16.29
2018-02-09T11:44:20.983Z,15.84
2018-02-09T11:46:48.563Z,16.15
2018-02-09T11:49:16.186Z,16.54
2018-02-09T11:51:43.768Z,16.21
2018-02-09T11:54:11.338Z,16.48
2018-02-09T11:56:39.000Z,16.74
2018-02-09T11:59:06.623Z,16.57
2018-02-09T12:01:34.298Z,17.03
2018-02-09T12:04:01.907Z,17.45
2018-02-09T12:06:29.471Z,16.67
2018-02-09T12:08:57.124Z,15.37
2018-02-09T12:11:24.686Z,14.65
2018-02-09T12:13:52.406Z,14.03
2018-02-09T12:16:20.038Z,13.94
2018-02-09T12:18:47.721Z,13.75
2018-02-09T12:21:15.297Z,13.58
2018-02-09T12:23:42.875Z,13.21
2018-02-09T12:26:10.429Z,12.90
2018-02-09T12:28:38.047Z,12.72
2018-02-09T12:31:05.614Z,12.74
2018-02-09T12:33:33.182Z,12.55
2018-02-09T12:36:00.873Z,12.65
2018-02-09T12:38:28.443Z,12.73
2018-02-09T12:40:56.090Z,12.67
2018-02-09T12:43:23.709Z,12.65
2018-02-09T12:45:51.282Z,12.30
2018-02-09T12:48:18.939Z,12.24
2018-02-09T12:50:46.531Z,12.14
2018-02-09T12:53:14.164Z,11.99
2018-02-09T12:55:41.730Z,12.03
2018-02-09T12:58:09.351Z,11.87
2018-02-09T13:00:36.991Z,11.91
2018-02-09T13:03:04.570Z,11.86
2018-02-09T13:05:32.272Z,11.82
2018-02-09T13:07:59.844Z,11.77
2018-02-09T13:10:27.417Z,11.84
2018-02-09T13:13:08.914Z,11.74
2018-02-09T13:15:36.554Z,11.68
2018-02-09T13:18:04.223Z,11.68
2018-02-09T13:20:31.796Z,11.60
2018-02-09T13:23:11.404Z,11.63
2018-02-09T13:25:38.973Z,11.45
2018-02-09T13:28:06.541Z,11.44
2018-02-09T13:30:34.125Z,11.41
2018-02-09T13:33:13.582Z,11.50
2018-02-09T13:35:41.255Z,11.50
2018-02-09T13:38:08.878Z,11.49
2018-02-09T13:40:36.502Z,11.52
2018-02-09T13:43:04.091Z,11.52
2018-02-09T13:45:31.695Z,11.48
2018-02-09T13:47:59.299Z,11.43
2018-02-09T13:50:26.866Z,11.39
2018-02-09T13:52:54.427Z,11.46
2018-02-09T13:55:22.012Z,11.43
2018-02-09T13:57:49.577Z,11.35
2018-02-09T14:00:17.299Z,11.29
2018-02-09T14:02:44.943Z,11.28
2018-02-09T14:05:12.503Z,11.26
2018-02-09T14:07:40.074Z,11.27
2018-02-09T14:10:07.702Z,11.16
2018-02-09T14:12:35.326Z,11.09
2018-02-09T14:15:02.898Z,10.99
2018-02-09T14:17:30.503Z,11.03
2018-02-09T14:19:58.080Z,11.05
2018-02-09T14:22:25.646Z,10.94
2018-02-09T14:24:53.316Z,10.85
2018-02-09T14:27:20.890Z,10.78
2018-02-09T14:29:48.455Z,10.77
2018-02-09T14:32:16.030Z,10.73
2018-02-09T14:34:43.655Z,10.60
2018-02-09T14:37:11.221Z,10.63
2018-02-09T14:39:38.850Z,10.60
2018-02-09T14:42:06.473Z,10.51
2018-02-09T14:44:34.038Z,10.44
2018-02-09T14:47:01.613Z,10.36
2018-02-09T14:49:29.256Z,10.35
2018-02-09T14:51:56.864Z,10.30
2018-02-09T14:54:24.508Z,10.20
2018-02-09T14:56:52.086Z,10.14
2018-02-09T14:59:19.780Z,10.08
2018-02-09T15:01:47.347Z,9.99
2018-02-09T15:04:14.975Z,9.88
2018-02-09T15:06:43.774Z,9.84
2018-02-09T15:09:11.336Z,9.66
2018-02-09T15:11:38.898Z,9.56
2018-02-09T15:14:06.463Z,9.51
2018-02-09T15:16:34.245Z,9.39
2018-02-09T15:19:01.851Z,9.27
2018-02-09T15:21:29.436Z,9.21
2018-02-09T15:23:57.082Z,9.10
2018-02-09T15:26:25.509Z,9.00
2018-02-09T15:28:53.085Z,8.94
2018-02-09T15:31:20.716Z,8.88
2018-02-09T15:33:48.386Z,8.83
2018-02-09T15:36:16.031Z,8.70
2018-02-09T15:38:43.609Z,8.53
2018-02-09T15:41:11.201Z,8.54
2018-02-09T15:43:38.846Z,8.36
2018-02-09T15:46:06.484Z,8.30
2018-02-09T15:48:34.985Z,8.23
2018-02-09T15:51:02.610Z,8.17
2018-02-09T15:53:30.292Z,8.02
2018-02-09T15:55:57.858Z,7.94
2018-02-09T15:58:25.422Z,7.80
2018-02-09T16:00:53.574Z,7.71
2018-02-09T16:03:21.203Z,7.63
2018-02-09T16:05:48.806Z,7.57
2018-02-09T16:08:16.422Z,7.49
2018-02-09T16:10:43.990Z,7.56
2018-02-09T16:13:11.530Z,7.56
2018-02-09T16:15:39.097Z,7.58
2018-02-09T16:18:06.655Z,7.59
2018-02-09T16:20:34.230Z,7.44
2018-02-09T16:23:01.796Z,7.36
2018-02-09T16:25:29.451Z,7.37
2018-02-09T16:27:57.125Z,7.46
2018-02-09T16:30:24.748Z,7.40
2018-02-09T16:32:52.325Z,7.43
2018-02-09T16:35:19.955Z,7.31
2018-02-09T16:37:47.592Z,7.33
2018-02-09T16:40:15.157Z,7.22
2018-02-09T16:42:43.662Z,7.17
2018-02-09T16:45:11.236Z,7.09
2018-02-09T16:47:38.824Z,7.08
2018-02-09T16:50:06.433Z,7.14
2018-02-09T16:52:33.994Z,7.18
2018-02-09T16:55:01.632Z,7.15
2018-02-09T16:57:30.014Z,7.21
2018-02-09T16:59:57.706Z,7.18
2018-02-09T17:02:25.273Z,7.29
2018-02-09T17:04:52.904Z,7.18
2018-02-09T17:07:20.535Z,7.14
2018-02-09T17:09:48.116Z,7.12
2018-02-09T17:12:15.787Z,7.12
2018-02-09T17:14:43.349Z,7.09
2018-02-09T17:17:10.905Z,7.03
2018-02-09T17:19:38.478Z,6.99
2018-02-09T17:22:06.360Z,6.83
2018-02-09T17:24:33.979Z,6.85
2018-02-09T17:27:01.554Z,6.76
2018-02-09T17:29:29.184Z,6.74
2018-02-09T17:31:56.777Z,6.72
2018-02-09T17:34:24.353Z,6.59
2018-02-09T17:36:52.007Z,6.47
2018-02-09T17:39:19.625Z,6.36
2018-02-09T17:41:47.203Z,6.22
2018-02-09T17:44:14.779Z,6.20
2018-02-09T17:46:42.360Z,6.12
2018-02-09T17:49:09.998Z,6.09
2018-02-09T17:51:37.623Z,5.96
2018-02-09T17:54:05.307Z,5.89
2018-02-09T17:56:32.934Z,5.88
2018-02-09T17:59:00.509Z,5.81
2018-02-09T18:01:28.083Z,5.88
2018-02-09T18:03:55.711Z,5.83
2018-02-09T18:06:23.278Z,5.89
2018-02-09T18:08:50.844Z,5.83
2018-02-09T18:11:18.514Z,5.76
2018-02-09T18:13:46.098Z,5.67
2018-02-09T18:16:13.747Z,5.62
2018-02-09T18:18:41.322Z,5.59
2018-02-09T18:21:08.889Z,5.59
2018-02-09T18:23:36.803Z,5.54
2018-02-09T18:26:04.498Z,5.52
2018-02-09T18:28:32.178Z,5.49
2018-02-09T18:30:59.789Z,5.47
2018-02-09T18:33:27.693Z,5.42
2018-02-09T18:35:55.341Z,5.36
2018-02-09T18:38:22.901Z,5.31
2018-02-09T18:40:50.534Z,5.31
2018-02-09T18:43:18.241Z,5.32
2018-02-09T18:45:45.869Z,5.32
2018-02-09T18:48:13.470Z,5.20
2018-02-09T18:50:41.033Z,5.21
2018-02-09T18:53:08.618Z,5.13
2018-02-09T18:55:36.241Z,5.09
2018-02-09T18:58:03.822Z,5.10
2018-02-09T19:00:31.454Z,5.09
2018-02-09T19:02:59.149Z,5.06
2018-02-09T19:05:26.753Z,5.04
2018-02-09T19:07:54.322Z,5.06
2018-02-09T19:10:21.966Z,5.06
2018-02-09T19:12:49.556Z,4.96
2018-02-09T19:15:17.144Z,4.88
2018-02-09T19:17:44.755Z,4.79
2018-02-09T19:20:12.461Z,4.71
2018-02-09T19:22:40.022Z,4.61
2018-02-09T19:25:07.645Z,4.53
2018-02-09T19:27:35.211Z,4.44
2018-02-09T19:30:02.778Z,4.28
2018-02-09T19:32:30.373Z,4.23
2018-02-09T19:34:57.995Z,4.18
2018-02-09T19:37:25.674Z,4.08
2018-02-09T19:39:53.287Z,4.09
2018-02-09T19:42:20.859Z,4.06
2018-02-09T19:44:48.459Z,4.04
2018-02-09T19:47:16.030Z,3.99
2018-02-09T19:49:43.618Z,3.97
2018-02-09T19:52:11.254Z,3.91
2018-02-09T19:54:38.946Z,3.83
2018-02-09T19:57:06.526Z,3.82
2018-02-09T19:59:34.165Z,3.77
2018-02-09T20:02:01.806Z,3.73
2018-02-09T20:04:29.423Z,3.62
2018-02-09T20:06:57.057Z,3.55
2018-02-09T20:09:24.687Z,3.54
2018-02-09T20:11:52.268Z,3.55
2018-02-09T20:14:19.854Z,3.55
2018-02-09T20:16:47.432Z,3.55
2018-02-09T20:19:15.358Z,3.49
2018-02-09T20:21:42.931Z,3.50
2018-02-09T20:24:10.552Z,3.48
2018-02-09T20:26:38.125Z,3.46
2018-02-09T20:29:05.767Z,3.43
2018-02-09T20:31:33.342Z,3.38
2018-02-09T20:34:00.926Z,3.33
2018-02-09T20:36:28.569Z,3.26
2018-02-09T20:38:56.316Z,3.26
2018-02-09T20:41:23.991Z,3.25
2018-02-09T20:43:51.563Z,3.23
2018-02-09T20:46:19.119Z,3.19
2018-02-09T20:48:46.758Z,3.20
2018-02-09T20:51:14.391Z,3.22
2018-02-09T20:53:42.026Z,3.25
2018-02-09T20:56:09.657Z,3.28
2018-02-09T20:58:37.363Z,3.30
2018-02-09T21:01:05.135Z,3.30
2018-02-09T21:03:32.729Z,3.23
2018-02-09T21:06:00.298Z,3.20
2018-02-09T21:08:27.867Z,3.14
2018-02-09T21:10:55.451Z,3.12
2018-02-09T21:13:23.077Z,3.10
2018-02-09T21:15:50.710Z,3.08
2018-02-09T21:18:18.287Z,3.03
2018-02-09T21:20:45.831Z,2.99
2018-02-09T21:23:13.401Z,2.95
2018-02-09T21:25:40.966Z,2.87
2018-02-09T21:30:42.453Z,2.77
2018-02-09T21:33:10.166Z,2.76
2018-02-09T21:35:37.793Z,2.87
2018-02-09T21:38:05.427Z,2.92
2018-02-09T21:40:33.001Z,2.91
2018-02-09T21:43:00.621Z,2.91
2018-02-09T21:45:28.331Z,2.87
2018-02-09T21:47:55.898Z,2.85
2018-02-09T21:50:23.454Z,2.78
2018-02-09T21:52:51.026Z,2.72
2018-02-09T21:55:18.598Z,2.71
2018-02-09T21:57:46.217Z,2.67
2018-02-09T22:00:13.837Z,2.68
2018-02-09T22:02:41.469Z,2.78
2018-02-09T22:05:09.044Z,2.82
2018-02-09T22:07:36.600Z,2.83
2018-02-09T22:10:04.166Z,2.81
2018-02-09T22:12:31.725Z,2.83
2018-02-09T22:14:59.286Z,2.86
2018-02-09T22:17:26.880Z,2.84
2018-02-09T22:19:54.503Z,2.80
2018-02-09T22:22:22.070Z,2.85
2018-02-09T22:24:49.633Z,2.87
2018-02-09T22:27:17.235Z,2.91
2018-02-09T22:29:44.806Z,2.92
2018-02-09T22:32:12.426Z,2.88
2018-02-09T22:34:40.073Z,2.88
2018-02-09T22:37:07.651Z,2.91
2018-02-09T22:39:35.298Z,2.94
2018-02-09T22:42:02.881Z,2.91
2018-02-09T22:44:30.439Z,2.84
2018-02-09T22:46:58.066Z,2.90
2018-02-09T22:49:25.694Z,2.93
2018-02-09T22:51:53.310Z,2.99
2018-02-09T22:54:20.865Z,3.01
2018-02-09T22:56:48.475Z,3.08
2018-02-09T22:59:16.063Z,3.12
2018-02-09T23:01:43.682Z,3.07
2018-02-09T23:04:11.310Z,3.04
2018-02-09T23:06:38.940Z,3.09
2018-02-09T23:09:06.614Z,3.15
2018-02-09T23:11:34.234Z,3.16
2018-02-09T23:14:01.854Z,3.12
2018-02-09T23:16:29.431Z,3.15
2018-02-09T23:18:56.992Z,3.12
2018-02-09T23:21:24.622Z,3.14
2018-02-09T23:23:52.183Z,3.14
2018-02-09T23:26:19.820Z,3.07
2018-02-09T23:28:47.402Z,3.03
2018-02-09T23:31:15.023Z,2.93
2018-02-09T23:33:42.594Z,2.83
2018-02-09T23:36:10.154Z,2.68
2018-02-09T23:38:37.822Z,2.64
2018-02-09T23:41:05.385Z,2.70
2018-02-09T23:43:32.950Z,2.81
2018-02-09T23:46:00.525Z,2.80
2018-02-09T23:48:28.150Z,2.81
2018-02-09T23:50:55.722Z,2.80
2018-02-09T23:53:23.290Z,2.75
2018-02-09T23:55:51.007Z,2.69
2018-02-09T23:58:18.611Z,2.65
